createdAt,value
2018-08-23T00:01:05.846Z,6.47
2018-08-23T00:03:33.423Z,6.72
2018-08-23T00:06:03.704Z,6.00
2018-08-23T00:08:31.342Z,6.87
2018-08-23T00:10:59.144Z,8.23
2018-08-23T00:13:26.586Z,6.97
2018-08-23T00:15:54.016Z,6.53
2018-08-23T00:18:21.677Z,10.78
2018-08-23T00:20:49.172Z,9.90
2018-08-23T00:23:16.668Z,12.37
2018-08-23T00:25:44.596Z,7.33
2018-08-23T00:28:12.083Z,7.08
2018-08-23T00:30:39.573Z,11.25
2018-08-23T00:33:07.042Z,8.05
2018-08-23T00:35:35.843Z,8.40
2018-08-23T00:38:04.124Z,7.87
2018-08-23T00:40:43.627Z,7.03
2018-08-23T00:43:12.582Z,8.08
2018-08-23T00:45:40.187Z,8.68
2018-08-23T00:48:07.702Z,6.85
2018-08-23T00:50:58.039Z,6.80
2018-08-23T00:53:25.978Z,8.13
2018-08-23T00:56:18.135Z,7.17
2018-08-23T00:58:51.279Z,6.97
2018-08-23T01:01:18.831Z,11.38
2018-08-23T01:03:46.279Z,6.67
2018-08-23T01:06:17.742Z,9.38
2018-08-23T01:08:45.219Z,8.48
2018-08-23T01:11:12.726Z,7.10
2018-08-23T01:13:40.324Z,8.83
2018-08-23T01:16:07.783Z,6.95
2018-08-23T01:18:35.188Z,10.50
2018-08-23T01:21:06.825Z,15.23
2018-08-23T01:23:34.439Z,7.72
2018-08-23T01:26:03.551Z,10.45
2018-08-23T01:28:32.051Z,7.67
2018-08-23T01:31:30.552Z,7.78
2018-08-23T01:33:59.093Z,7.72
2018-08-23T01:36:30.919Z,7.50
2018-08-23T01:38:58.624Z,8.40
2018-08-23T01:41:26.135Z,11.40
2018-08-23T01:43:53.715Z,8.50
2018-08-23T01:46:27.328Z,8.73
2018-08-23T01:48:54.883Z,8.08
2018-08-23T01:51:22.423Z,8.30
2018-08-23T01:53:49.842Z,8.53
2018-08-23T01:56:17.814Z,8.18
2018-08-23T01:58:45.281Z,8.78
2018-08-23T02:01:14.418Z,9.18
2018-08-23T02:03:42.531Z,9.10
2018-08-23T02:06:09.984Z,9.25
2018-08-23T02:08:37.504Z,13.75
2018-08-23T02:11:05.385Z,9.03
2018-08-23T02:13:32.811Z,8.88
2018-08-23T02:16:03.109Z,13.05
2018-08-23T02:18:31.037Z,9.03
2018-08-23T02:21:04.197Z,8.95
2018-08-23T02:23:31.687Z,9.93
2018-08-23T02:25:59.103Z,9.60
2018-08-23T02:28:26.727Z,11.57
2018-08-23T02:30:56.012Z,9.65
2018-08-23T02:33:24.105Z,9.60
2018-08-23T02:36:21.964Z,10.45
2018-08-23T02:38:55.949Z,10.20
2018-08-23T02:41:23.544Z,10.72
2018-08-23T02:43:50.995Z,11.55
2018-08-23T02:46:18.555Z,12.40
2018-08-23T02:48:46.014Z,12.55
2018-08-23T02:51:13.531Z,12.35
2018-08-23T02:53:48.775Z,13.58
2018-08-23T02:56:19.371Z,11.63
2018-08-23T02:58:56.378Z,13.30
2018-08-23T03:01:24.835Z,10.68
2018-08-23T03:04:03.664Z,10.32
2018-08-23T03:06:36.933Z,10.08
2018-08-23T03:09:05.849Z,11.75
2018-08-23T03:11:35.750Z,12.05
2018-08-23T03:14:03.640Z,12.05
2018-08-23T03:16:42.499Z,15.23
2018-08-23T03:19:09.971Z,9.95
2018-08-23T03:21:37.397Z,11.40
2018-08-23T03:24:05.024Z,16.75
2018-08-23T03:26:32.446Z,10.65
2018-08-23T03:29:00.020Z,11.00
2018-08-23T03:31:27.461Z,18.25
2018-08-23T03:33:54.936Z,17.65
2018-08-23T03:36:22.821Z,14.23
2018-08-23T03:38:50.261Z,8.93
2018-08-23T03:41:17.723Z,15.58
2018-08-23T03:43:45.267Z,18.57
2018-08-23T03:46:12.704Z,17.75
2018-08-23T03:48:40.244Z,9.93
2018-08-23T03:51:07.804Z,10.60
2018-08-23T03:53:47.871Z,10.15
2018-08-23T03:56:16.581Z,11.70
2018-08-23T03:58:44.161Z,15.45
2018-08-23T04:01:12.853Z,8.90
2018-08-23T04:03:40.342Z,10.00
2018-08-23T04:06:21.439Z,10.40
2018-08-23T04:08:48.993Z,13.58
2018-08-23T04:11:16.868Z,14.60
2018-08-23T04:13:45.507Z,11.20
2018-08-23T04:16:13.235Z,10.80
2018-08-23T04:18:40.660Z,13.95
2018-08-23T04:21:11.805Z,11.50
2018-08-23T04:23:39.275Z,12.60
2018-08-23T04:26:06.994Z,10.45
2018-08-23T04:28:34.479Z,14.03
2018-08-23T04:31:01.975Z,16.25
2018-08-23T04:33:29.444Z,11.95
2018-08-23T04:35:56.919Z,14.40
2018-08-23T04:38:24.379Z,14.53
2018-08-23T04:40:56.780Z,13.80
2018-08-23T04:43:24.301Z,16.15
2018-08-23T04:45:51.708Z,14.68
2018-08-23T04:48:19.163Z,12.68
2018-08-23T04:50:46.679Z,15.85
2018-08-23T04:53:14.180Z,12.05
2018-08-23T04:55:41.608Z,14.20
2018-08-23T04:58:09.099Z,22.22
2018-08-23T05:00:36.606Z,18.70
2018-08-23T05:03:04.086Z,15.38
2018-08-23T05:05:31.617Z,15.15
2018-08-23T05:07:59.093Z,15.80
2018-08-23T05:10:26.617Z,17.25
2018-08-23T05:12:54.079Z,19.50
2018-08-23T05:15:22.706Z,18.85
2018-08-23T05:17:50.264Z,21.30
2018-08-23T05:20:17.741Z,18.77
2018-08-23T05:22:55.756Z,18.62
2018-08-23T05:25:23.958Z,17.62
2018-08-23T05:28:06.727Z,25.48
2018-08-23T05:30:34.390Z,20.40
2018-08-23T05:33:08.316Z,18.40
2018-08-23T05:35:35.765Z,17.98
2018-08-23T05:38:03.266Z,19.62
2018-08-23T05:40:36.290Z,18.30
2018-08-23T05:43:03.872Z,23.40
2018-08-23T05:45:36.989Z,18.92
2018-08-23T05:48:17.124Z,20.43
2018-08-23T05:50:44.735Z,19.92
2018-08-23T05:53:14.198Z,22.37
2018-08-23T05:55:41.868Z,19.52
2018-08-23T05:58:16.678Z,19.40
2018-08-23T06:00:44.344Z,24.32
2018-08-23T06:03:12.751Z,21.00
2018-08-23T06:05:40.235Z,23.62
2018-08-23T06:08:07.709Z,19.95
2018-08-23T06:10:35.092Z,22.77
2018-08-23T06:13:02.511Z,21.42
2018-08-23T06:15:31.276Z,18.75
2018-08-23T06:17:58.726Z,18.25
2018-08-23T06:20:26.211Z,20.05
2018-08-23T06:22:53.728Z,21.60
2018-08-23T06:25:21.237Z,20.77
2018-08-23T06:27:48.786Z,17.55
2018-08-23T06:30:16.242Z,18.57
2018-08-23T06:32:44.731Z,22.87
2018-08-23T06:35:12.281Z,19.55
2018-08-23T06:37:44.297Z,25.55
2018-08-23T06:40:11.761Z,28.87
2018-08-23T06:42:45.089Z,22.80
2018-08-23T06:45:12.637Z,21.55
2018-08-23T06:47:40.708Z,19.15
2018-08-23T06:50:08.284Z,22.45
2018-08-23T06:52:41.300Z,23.18
2018-08-23T06:55:13.359Z,19.25
2018-08-23T06:57:43.292Z,16.82
2018-08-23T07:00:10.855Z,22.70
2018-08-23T07:02:43.965Z,25.37
2018-08-23T07:05:11.504Z,23.40
2018-08-23T07:07:39.005Z,20.75
2018-08-23T07:10:06.495Z,24.37
2018-08-23T07:12:33.956Z,20.32
2018-08-23T07:15:01.499Z,16.42
2018-08-23T07:17:30.812Z,23.98
2018-08-23T07:20:01.779Z,21.80
2018-08-23T07:22:29.290Z,17.55
2018-08-23T07:24:57.310Z,19.55
2018-08-23T07:27:24.762Z,20.80
2018-08-23T07:29:54.915Z,20.37
2018-08-23T07:32:23.559Z,21.15
2018-08-23T07:34:53.232Z,21.05
2018-08-23T07:37:21.270Z,24.32
2018-08-23T07:39:55.793Z,20.52
2018-08-23T07:42:24.712Z,25.37
2018-08-23T07:44:52.657Z,27.87
2018-08-23T07:47:20.795Z,23.70
2018-08-23T07:49:48.356Z,35.58
2018-08-23T07:52:15.769Z,21.80
2018-08-23T07:54:43.287Z,20.95
2018-08-23T07:57:10.712Z,25.23
2018-08-23T07:59:38.142Z,26.10
2018-08-23T08:02:09.438Z,22.13
2018-08-23T08:04:37.005Z,22.15
2018-08-23T08:07:07.535Z,20.45
2018-08-23T08:09:34.999Z,23.80
2018-08-23T08:12:02.510Z,24.32
2018-08-23T08:14:36.021Z,22.35
2018-08-23T08:17:15.073Z,22.13
2018-08-23T08:19:48.382Z,19.50
2018-08-23T08:22:15.849Z,20.48
2018-08-23T08:24:43.283Z,16.00
2018-08-23T08:27:10.771Z,17.85
2018-08-23T08:29:38.604Z,16.27
2018-08-23T08:32:07.279Z,17.25
2018-08-23T08:34:35.371Z,16.05
2018-08-23T08:37:02.826Z,16.40
2018-08-23T08:39:30.239Z,15.35
2018-08-23T08:41:57.729Z,16.82
2018-08-23T08:44:25.176Z,15.95
2018-08-23T08:46:52.634Z,15.18
2018-08-23T08:49:20.108Z,13.20
2018-08-23T08:51:47.568Z,12.20
2018-08-23T08:54:15.114Z,17.55
2018-08-23T08:56:44.410Z,14.80
2018-08-23T08:59:11.902Z,11.88
2018-08-23T09:01:39.383Z,11.43
2018-08-23T09:04:06.840Z,11.75
2018-08-23T09:06:39.796Z,16.25
2018-08-23T09:09:31.189Z,11.80
2018-08-23T09:12:00.874Z,12.78
2018-08-23T09:14:28.415Z,11.88
2018-08-23T09:16:55.977Z,15.00
2018-08-23T09:19:33.785Z,11.83
2018-08-23T09:22:07.018Z,9.10
2018-08-23T09:24:34.443Z,13.48
2018-08-23T09:27:01.888Z,15.32
2018-08-23T09:29:36.770Z,13.75
2018-08-23T09:32:21.567Z,13.93
2018-08-23T09:34:49.559Z,10.03
2018-08-23T09:37:17.066Z,9.23
2018-08-23T09:39:45.535Z,11.78
2018-08-23T09:42:13.004Z,12.55
2018-08-23T09:44:55.541Z,9.73
2018-08-23T09:47:23.040Z,14.87
2018-08-23T09:49:50.480Z,11.83
2018-08-23T09:52:19.962Z,9.73
2018-08-23T09:54:47.482Z,9.30
2018-08-23T09:57:14.888Z,7.92
2018-08-23T09:59:43.528Z,9.35
2018-08-23T10:04:18.936Z,15.00
2018-08-23T10:06:52.040Z,7.75
2018-08-23T10:09:22.761Z,8.70
2018-08-23T10:11:55.829Z,7.25
2018-08-23T10:14:28.985Z,7.72
2018-08-23T10:17:02.171Z,6.55
2018-08-23T10:19:35.328Z,7.20
2018-08-23T10:22:08.475Z,7.17
2018-08-23T10:24:35.982Z,7.95
2018-08-23T10:27:03.591Z,10.75
2018-08-23T10:29:30.991Z,8.00
2018-08-23T10:31:58.447Z,11.22
2018-08-23T10:34:26.000Z,7.00
2018-08-23T10:36:53.471Z,4.65
2018-08-23T10:39:21.032Z,5.37
2018-08-23T10:41:48.459Z,5.17
2018-08-23T10:44:15.998Z,4.75
2018-08-23T10:46:49.086Z,5.15
2018-08-23T10:49:16.619Z,4.75
2018-08-23T10:51:44.102Z,3.90
2018-08-23T10:54:11.560Z,5.55
2018-08-23T10:56:39.098Z,4.35
2018-08-23T10:59:06.823Z,4.30
2018-08-23T11:01:34.299Z,6.53
2018-08-23T11:04:04.700Z,4.20
2018-08-23T11:06:32.189Z,4.65
2018-08-23T11:09:05.283Z,4.35
2018-08-23T11:11:34.481Z,3.72
2018-08-23T11:14:07.672Z,3.85
2018-08-23T11:16:40.922Z,3.50
2018-08-23T11:19:14.048Z,3.33
2018-08-23T11:21:41.514Z,4.92
2018-08-23T11:24:09.047Z,3.75
2018-08-23T11:26:36.582Z,4.35
2018-08-23T11:29:04.108Z,4.67
2018-08-23T11:31:31.787Z,7.55
2018-08-23T11:33:59.291Z,4.87
2018-08-23T11:36:26.791Z,5.62
2018-08-23T11:38:54.202Z,5.00
2018-08-23T11:41:21.724Z,5.70
2018-08-23T11:43:49.195Z,10.58
2018-08-23T11:46:17.897Z,5.37
2018-08-23T11:48:46.021Z,6.33
2018-08-23T11:51:14.416Z,4.58
2018-08-23T11:53:42.548Z,4.33
2018-08-23T11:56:10.033Z,3.95
2018-08-23T11:58:37.666Z,6.90
2018-08-23T12:01:09.692Z,6.80
2018-08-23T12:03:37.627Z,3.30
2018-08-23T12:06:05.421Z,5.20
2018-08-23T12:08:32.880Z,3.75
2018-08-23T12:11:00.324Z,3.22
2018-08-23T12:13:27.882Z,4.72
2018-08-23T12:15:55.365Z,4.03
2018-08-23T12:18:29.332Z,3.95
2018-08-23T12:20:57.519Z,6.08
2018-08-23T12:23:24.948Z,6.25
2018-08-23T12:25:52.457Z,3.62
2018-08-23T12:28:25.700Z,6.03
2018-08-23T12:30:53.129Z,3.95
2018-08-23T12:33:20.569Z,4.30
2018-08-23T12:35:48.300Z,6.72
2018-08-23T12:38:21.468Z,4.95
2018-08-23T12:40:54.743Z,3.67
2018-08-23T12:43:27.804Z,3.37
2018-08-23T12:45:59.428Z,10.43
2018-08-23T12:48:27.281Z,4.28
2018-08-23T12:50:54.715Z,3.27
2018-08-23T12:53:22.233Z,3.05
2018-08-23T12:55:49.684Z,3.67
2018-08-23T12:58:17.149Z,2.08
2018-08-23T13:00:44.657Z,2.12
2018-08-23T13:03:12.188Z,1.20
2018-08-23T13:05:39.565Z,2.47
2018-08-23T13:08:07.170Z,1.25
2018-08-23T13:10:35.120Z,0.65
2018-08-23T13:13:02.531Z,6.22
2018-08-23T13:15:30.223Z,0.88
2018-08-23T13:17:57.754Z,1.12
2018-08-23T13:20:25.196Z,1.27
2018-08-23T13:22:52.643Z,1.85
2018-08-23T13:25:20.191Z,5.12
2018-08-23T13:27:47.716Z,0.85
2018-08-23T13:30:15.148Z,2.35
2018-08-23T13:32:42.688Z,3.27
2018-08-23T13:35:10.247Z,1.20
2018-08-23T13:37:37.732Z,1.10
2018-08-23T13:40:05.294Z,0.90
2018-08-23T13:42:32.843Z,2.27
2018-08-23T13:45:00.458Z,1.75
2018-08-23T13:47:27.863Z,1.95
2018-08-23T13:49:55.435Z,1.70
2018-08-23T13:52:22.943Z,13.58
2018-08-23T13:54:50.411Z,2.60
2018-08-23T13:57:17.843Z,8.23
2018-08-23T13:59:45.396Z,6.08
2018-08-23T14:02:12.864Z,2.45
2018-08-23T14:04:40.264Z,3.22
2018-08-23T14:07:07.818Z,1.70
2018-08-23T14:09:35.271Z,6.17
2018-08-23T14:12:02.855Z,9.40
2018-08-23T14:14:30.514Z,3.58
2018-08-23T14:16:58.832Z,2.95
2018-08-23T14:19:26.376Z,1.27
2018-08-23T14:21:53.878Z,1.70
2018-08-23T14:24:21.324Z,3.92
2018-08-23T14:26:48.794Z,1.60
2018-08-23T14:29:16.304Z,1.52
2018-08-23T14:31:43.789Z,2.77
2018-08-23T14:34:11.221Z,1.55
2018-08-23T14:36:38.670Z,6.58
2018-08-23T14:39:07.610Z,2.87
2018-08-23T14:41:35.412Z,9.48
2018-08-23T14:44:02.842Z,6.72
2018-08-23T14:46:35.943Z,1.98
2018-08-23T14:49:03.445Z,2.50
2018-08-23T14:51:30.862Z,1.95
2018-08-23T14:53:58.275Z,2.37
2018-08-23T14:56:31.464Z,2.80
2018-08-23T14:58:59.049Z,2.70
2018-08-23T15:01:26.532Z,2.25
2018-08-23T15:03:54.013Z,2.45
2018-08-23T15:06:21.471Z,6.37
2018-08-23T15:08:49.006Z,5.12
2018-08-23T15:11:16.471Z,2.02
2018-08-23T15:13:43.890Z,2.58
2018-08-23T15:16:11.279Z,2.00
2018-08-23T15:18:38.712Z,1.87
2018-08-23T15:21:06.146Z,1.55
2018-08-23T15:23:33.635Z,1.70
2018-08-23T15:26:01.133Z,4.00
2018-08-23T15:28:28.480Z,1.77
2018-08-23T15:30:55.959Z,2.42
2018-08-23T15:33:23.399Z,5.25
2018-08-23T15:35:51.019Z,2.58
2018-08-23T15:38:18.478Z,3.67
2018-08-23T15:40:45.973Z,2.50
2018-08-23T15:43:13.425Z,2.75
2018-08-23T15:45:40.867Z,1.55
2018-08-23T15:48:08.346Z,3.17
2018-08-23T15:50:35.778Z,2.08
2018-08-23T15:53:03.240Z,3.15
2018-08-23T15:55:31.055Z,2.20
2018-08-23T15:57:58.329Z,3.02
2018-08-23T16:00:30.408Z,2.15
2018-08-23T16:02:57.908Z,4.78
2018-08-23T16:05:25.331Z,2.22
2018-08-23T16:07:52.847Z,3.30
2018-08-23T16:10:20.324Z,2.75
2018-08-23T16:12:47.763Z,5.60
2018-08-23T16:15:21.691Z,2.58
2018-08-23T16:17:54.879Z,4.08
2018-08-23T16:20:28.037Z,4.78
2018-08-23T16:22:55.732Z,2.90
2018-08-23T16:25:23.099Z,2.77
2018-08-23T16:27:50.699Z,5.60
2018-08-23T16:30:18.535Z,4.97
2018-08-23T16:32:45.994Z,2.40
2018-08-23T16:35:13.492Z,1.92
2018-08-23T16:37:40.991Z,4.10
2018-08-23T16:40:08.434Z,3.67
2018-08-23T16:42:37.145Z,5.28
2018-08-23T16:45:04.655Z,3.22
2018-08-23T16:47:32.158Z,3.00
2018-08-23T16:49:59.764Z,4.90
2018-08-23T16:52:27.202Z,2.50
2018-08-23T16:54:54.637Z,4.03
2018-08-23T16:57:22.122Z,2.35
2018-08-23T16:59:49.600Z,2.27
2018-08-23T17:02:17.073Z,2.27
2018-08-23T17:04:45.833Z,1.85
2018-08-23T17:07:14.797Z,2.00
2018-08-23T17:09:42.334Z,2.30
2018-08-23T17:12:09.947Z,2.98
2018-08-23T17:14:37.477Z,2.40
2018-08-23T17:17:10.823Z,2.40
2018-08-23T17:19:38.281Z,2.33
2018-08-23T17:22:05.767Z,2.90
2018-08-23T17:24:33.351Z,3.80
2018-08-23T17:27:00.788Z,2.27
2018-08-23T17:29:28.674Z,2.35
2018-08-23T17:31:56.131Z,2.55
2018-08-23T17:34:23.576Z,4.92
2018-08-23T17:36:51.119Z,2.15
2018-08-23T17:39:18.609Z,3.15
2018-08-23T17:41:46.017Z,4.80
2018-08-23T17:44:13.464Z,2.80
2018-08-23T17:46:41.028Z,3.33
2018-08-23T17:49:08.699Z,3.10
2018-08-23T17:51:36.198Z,3.92
2018-08-23T17:54:03.771Z,2.65
2018-08-23T17:56:31.256Z,3.30
2018-08-23T17:58:58.762Z,2.75
2018-08-23T18:01:26.348Z,2.55
2018-08-23T18:03:53.878Z,2.70
2018-08-23T18:06:21.568Z,2.47
2018-08-23T18:08:49.050Z,2.87
2018-08-23T18:11:16.610Z,2.98
2018-08-23T18:13:44.139Z,4.55
2018-08-23T18:16:17.298Z,3.37
2018-08-23T18:18:44.879Z,3.33
2018-08-23T18:21:12.456Z,2.67
2018-08-23T18:23:40.057Z,3.25
2018-08-23T18:26:07.589Z,3.47
2018-08-23T18:28:35.232Z,3.33
2018-08-23T18:31:02.748Z,3.90
2018-08-23T18:33:30.462Z,8.05
2018-08-23T18:35:58.043Z,24.27
2018-08-23T18:38:25.821Z,14.23
2018-08-23T18:40:53.250Z,25.32
2018-08-23T18:43:21.207Z,16.55
2018-08-23T18:45:48.902Z,7.67
2018-08-23T18:48:16.468Z,3.85
2018-08-23T18:50:44.002Z,4.25
2018-08-23T18:53:11.979Z,11.22
2018-08-23T18:55:39.644Z,6.72
2018-08-23T18:58:07.708Z,7.30
2018-08-23T19:00:35.248Z,3.20
2018-08-23T19:03:02.971Z,6.80
2018-08-23T19:05:31.391Z,3.02
2018-08-23T19:08:01.355Z,4.80
2018-08-23T19:10:28.857Z,9.10
2018-08-23T19:12:56.594Z,3.50
2018-08-23T19:15:29.777Z,6.83
2018-08-23T19:17:57.650Z,3.02
2018-08-23T19:20:25.248Z,2.98
2018-08-23T19:22:52.820Z,5.55
2018-08-23T19:25:22.321Z,5.78
2018-08-23T19:27:49.950Z,3.30
2018-08-23T19:30:17.478Z,4.55
2018-08-23T19:32:45.029Z,5.30
2018-08-23T19:35:12.423Z,3.17
2018-08-23T19:37:39.936Z,2.12
2018-08-23T19:40:07.685Z,2.45
2018-08-23T19:42:35.209Z,3.40
2018-08-23T19:45:02.783Z,4.78
2018-08-23T19:47:35.894Z,5.30
2018-08-23T19:50:06.983Z,2.72
2018-08-23T19:52:34.607Z,3.98
2018-08-23T19:55:02.988Z,3.70
2018-08-23T19:57:30.732Z,4.15
2018-08-23T19:59:58.616Z,5.62
2018-08-23T20:02:26.975Z,4.85
2018-08-23T20:04:56.481Z,3.98
2018-08-23T20:07:24.283Z,2.92
2018-08-23T20:09:51.866Z,4.03
2018-08-23T20:12:20.069Z,2.85
2018-08-23T20:14:47.670Z,3.85
2018-08-23T20:17:16.110Z,6.17
2018-08-23T20:19:53.901Z,3.45
2018-08-23T20:22:21.864Z,3.40
2018-08-23T20:24:49.707Z,3.35
2018-08-23T20:27:17.409Z,8.45
2018-08-23T20:29:47.224Z,3.47
2018-08-23T20:32:16.230Z,7.22
2018-08-23T20:34:44.946Z,3.92
2018-08-23T20:37:12.424Z,5.20
2018-08-23T20:39:41.430Z,4.47
2018-08-23T20:42:08.945Z,3.90
2018-08-23T20:44:36.542Z,3.55
2018-08-23T20:47:13.649Z,4.70
2018-08-23T20:49:41.181Z,6.10
2018-08-23T20:52:11.960Z,4.90
2018-08-23T20:54:48.970Z,3.72
2018-08-23T20:57:21.052Z,7.35
2018-08-23T20:59:49.896Z,5.42
2018-08-23T21:02:19.956Z,3.83
2018-08-23T21:04:50.697Z,3.62
2018-08-23T21:07:18.320Z,6.92
2018-08-23T21:09:45.906Z,5.62
2018-08-23T21:12:13.450Z,5.20
2018-08-23T21:14:40.904Z,7.35
2018-08-23T21:17:08.385Z,4.45
2018-08-23T21:19:38.133Z,4.62
2018-08-23T21:22:05.823Z,4.10
2018-08-23T21:24:33.307Z,8.78
2018-08-23T21:27:00.776Z,6.55
2018-08-23T21:29:28.269Z,8.10
2018-08-23T21:31:55.688Z,6.37
2018-08-23T21:34:23.154Z,5.53
2018-08-23T21:36:50.616Z,6.60
2018-08-23T21:39:18.106Z,4.25
2018-08-23T21:41:45.584Z,4.20
2018-08-23T21:44:13.023Z,4.60
2018-08-23T21:46:40.665Z,4.28
2018-08-23T21:49:08.261Z,4.33
2018-08-23T21:51:35.723Z,4.00
2018-08-23T21:54:03.248Z,4.72
2018-08-23T21:56:30.708Z,5.72
2018-08-23T21:58:58.141Z,3.77
2018-08-23T22:01:25.848Z,4.45
2018-08-23T22:03:53.394Z,9.43
2018-08-23T22:06:20.865Z,4.65
2018-08-23T22:08:48.397Z,6.05
2018-08-23T22:11:15.864Z,4.28
2018-08-23T22:13:43.387Z,4.22
2018-08-23T22:16:10.838Z,6.67
2018-08-23T22:18:38.311Z,4.78
2018-08-23T22:21:05.772Z,4.42
2018-08-23T22:23:33.207Z,3.90
2018-08-23T22:26:00.695Z,7.53
2018-08-23T22:28:28.222Z,6.92
2018-08-23T22:30:55.796Z,5.05
2018-08-23T22:33:23.319Z,6.30
2018-08-23T22:35:50.752Z,4.65
2018-08-23T22:38:18.251Z,5.08
2018-08-23T22:40:45.743Z,5.00
2018-08-23T22:43:13.454Z,8.98
2018-08-23T22:45:40.898Z,6.97
2018-08-23T22:48:08.439Z,6.37
2018-08-23T22:50:35.874Z,6.17
2018-08-23T22:53:03.330Z,7.30
2018-08-23T22:55:30.799Z,5.97
2018-08-23T22:57:58.222Z,5.92
2018-08-23T23:00:31.195Z,7.17
2018-08-23T23:02:58.767Z,5.60
2018-08-23T23:05:26.290Z,7.35
2018-08-23T23:07:53.776Z,5.30
2018-08-23T23:10:21.227Z,5.55
2018-08-23T23:12:48.728Z,5.47
2018-08-23T23:15:21.946Z,6.33
2018-08-23T23:17:49.483Z,6.10
2018-08-23T23:20:16.977Z,7.30
2018-08-23T23:22:44.514Z,7.62
2018-08-23T23:25:11.950Z,5.67
2018-08-23T23:27:39.366Z,4.70
2018-08-23T23:30:06.893Z,7.15
2018-08-23T23:32:34.525Z,6.45
2018-08-23T23:35:02.004Z,4.87
2018-08-23T23:37:29.647Z,6.17
2018-08-23T23:39:57.066Z,5.80
2018-08-23T23:42:24.507Z,5.30
2018-08-23T23:44:51.980Z,4.87
2018-08-23T23:47:19.467Z,5.97
2018-08-23T23:49:46.911Z,5.65
2018-08-23T23:52:14.355Z,5.78
2018-08-23T23:54:41.943Z,5.17
2018-08-23T23:57:09.373Z,5.42
2018-08-23T23:59:36.855Z,6.05
